sensor_id;sensor_type;location;lat;lon;timestamp;pressure;altitude;pressure_sealevel;temperature;humidity
1480;BME280;732;51.698;4.886;2023-01-31T00:00:34;102648.38;;;0.78;100.00
1480;BME280;732;51.698;4.886;2023-01-31T00:03:03;102668.81;;;0.86;100.00
1480;BME280;732;51.698;4.886;2023-01-31T00:05:33;102671.84;;;0.93;100.00
1480;BME280;732;51.698;4.886;2023-01-31T00:08:02;102671.94;;;0.94;100.00
1480;BME280;732;51.698;4.886;2023-01-31T00:10:30;102665.25;;;0.84;100.00
1480;BME280;732;51.698;4.886;2023-01-31T00:12:58;102635.78;;;0.71;100.00
1480;BME280;732;51.698;4.886;2023-01-31T00:15:27;102671.28;;;0.97;100.00
1480;BME280;732;51.698;4.886;2023-01-31T00:17:55;102628.94;;;0.71;100.00
1480;BME280;732;51.698;4.886;2023-01-31T00:20:24;102661.31;;;0.78;100.00
1480;BME280;732;51.698;4.886;2023-01-31T00:22:54;102664.72;;;1.02;100.00
1480;BME280;732;51.698;4.886;2023-01-31T00:25:23;102654.47;;;1.03;100.00
1480;BME280;732;51.698;4.886;2023-01-31T00:27:51;102643.84;;;1.12;100.00
1480;BME280;732;51.698;4.886;2023-01-31T00:30:20;102668.31;;;1.28;100.00
1480;BME280;732;51.698;4.886;2023-01-31T00:32:48;102646.09;;;1.32;100.00
1480;BME280;732;51.698;4.886;2023-01-31T00:35:17;102661.59;;;1.56;100.00
1480;BME280;732;51.698;4.886;2023-01-31T00:37:45;102657.72;;;1.50;100.00
1480;BME280;732;51.698;4.886;2023-01-31T00:40:16;102656.81;;;1.62;100.00
1480;BME280;732;51.698;4.886;2023-01-31T00:42:45;102632.22;;;1.69;100.00
1480;BME280;732;51.698;4.886;2023-01-31T00:45:13;102644.56;;;1.73;100.00
1480;BME280;732;51.698;4.886;2023-01-31T00:47:42;102629.50;;;1.67;100.00
1480;BME280;732;51.698;4.886;2023-01-31T00:50:13;102649.44;;;1.93;100.00
1480;BME280;732;51.698;4.886;2023-01-31T00:52:43;102613.78;;;1.91;100.00
1480;BME280;732;51.698;4.886;2023-01-31T00:55:12;102621.88;;;1.95;100.00
1480;BME280;732;51.698;4.886;2023-01-31T00:57:42;102617.78;;;1.99;100.00
1480;BME280;732;51.698;4.886;2023-01-31T01:00:12;102529.34;;;1.43;100.00
1480;BME280;732;51.698;4.886;2023-01-31T01:02:41;102545.41;;;1.64;100.00
1480;BME280;732;51.698;4.886;2023-01-31T01:05:09;102612.78;;;2.02;100.00
1480;BME280;732;51.698;4.886;2023-01-31T01:07:38;102606.69;;;1.88;100.00
1480;BME280;732;51.698;4.886;2023-01-31T01:10:08;102567.25;;;1.41;100.00
1480;BME280;732;51.698;4.886;2023-01-31T01:12:36;102599.19;;;1.66;100.00
1480;BME280;732;51.698;4.886;2023-01-31T01:15:08;102581.03;;;1.53;100.00
1480;BME280;732;51.698;4.886;2023-01-31T01:17:36;102555.56;;;1.22;100.00
1480;BME280;732;51.698;4.886;2023-01-31T01:20:07;102603.84;;;1.46;100.00
1480;BME280;732;51.698;4.886;2023-01-31T01:22:37;102591.91;;;1.48;100.00
1480;BME280;732;51.698;4.886;2023-01-31T01:25:08;102607.53;;;1.49;100.00
1480;BME280;732;51.698;4.886;2023-01-31T01:27:37;102601.94;;;1.43;100.00
1480;BME280;732;51.698;4.886;2023-01-31T01:30:09;102569.22;;;1.19;100.00
1480;BME280;732;51.698;4.886;2023-01-31T01:32:38;102576.59;;;1.26;100.00
1480;BME280;732;51.698;4.886;2023-01-31T01:35:07;102598.72;;;1.21;100.00
1480;BME280;732;51.698;4.886;2023-01-31T01:37:36;102574.78;;;1.12;100.00
1480;BME280;732;51.698;4.886;2023-01-31T01:40:07;102503.25;;;0.76;100.00
1480;BME280;732;51.698;4.886;2023-01-31T01:42:36;102596.13;;;1.21;100.00
1480;BME280;732;51.698;4.886;2023-01-31T01:45:13;102571.13;;;1.22;100.00
1480;BME280;732;51.698;4.886;2023-01-31T01:47:49;102561.44;;;1.19;100.00
1480;BME280;732;51.698;4.886;2023-01-31T01:50:24;102596.97;;;1.33;100.00
1480;BME280;732;51.698;4.886;2023-01-31T01:52:59;102546.34;;;1.01;100.00
1480;BME280;732;51.698;4.886;2023-01-31T01:55:32;102594.53;;;1.23;100.00
1480;BME280;732;51.698;4.886;2023-01-31T01:58:08;102604.94;;;1.36;100.00
1480;BME280;732;51.698;4.886;2023-01-31T02:00:43;102594.22;;;1.19;100.00
1480;BME280;732;51.698;4.886;2023-01-31T02:03:13;102567.16;;;1.02;100.00
1480;BME280;732;51.698;4.886;2023-01-31T02:05:45;102608.41;;;1.24;100.00
1480;BME280;732;51.698;4.886;2023-01-31T02:08:18;102598.44;;;1.30;100.00
1480;BME280;732;51.698;4.886;2023-01-31T02:10:51;102603.94;;;1.34;100.00
1480;BME280;732;51.698;4.886;2023-01-31T02:13:22;102562.63;;;1.24;100.00
1480;BME280;732;51.698;4.886;2023-01-31T02:15:53;102539.50;;;1.14;100.00
1480;BME280;732;51.698;4.886;2023-01-31T02:18:24;102583.91;;;1.45;100.00
1480;BME280;732;51.698;4.886;2023-01-31T02:28:07;102607.59;;;1.89;100.00
1480;BME280;732;51.698;4.886;2023-01-31T02:31:05;102605.97;;;1.77;100.00
1480;BME280;732;51.698;4.886;2023-01-31T02:33:46;102557.59;;;1.52;100.00
1480;BME280;732;51.698;4.886;2023-01-31T02:36:35;102565.47;;;1.53;100.00
1480;BME280;732;51.698;4.886;2023-01-31T02:39:15;102572.06;;;1.74;100.00
1480;BME280;732;51.698;4.886;2023-01-31T02:41:54;102612.69;;;2.00;100.00
1480;BME280;732;51.698;4.886;2023-01-31T02:44:28;102547.13;;;1.76;100.00
1480;BME280;732;51.698;4.886;2023-01-31T02:47:25;102607.69;;;2.03;100.00
1480;BME280;732;51.698;4.886;2023-01-31T02:50:01;102566.66;;;1.71;100.00
1480;BME280;732;51.698;4.886;2023-01-31T02:52:39;102605.91;;;2.02;100.00
1480;BME280;732;51.698;4.886;2023-01-31T02:55:15;102593.34;;;2.08;100.00
1480;BME280;732;51.698;4.886;2023-01-31T02:58:06;102486.00;;;1.41;100.00
1480;BME280;732;51.698;4.886;2023-01-31T03:00:39;102587.94;;;1.92;100.00
1480;BME280;732;51.698;4.886;2023-01-31T03:03:19;102590.75;;;1.95;100.00
1480;BME280;732;51.698;4.886;2023-01-31T03:09:29;102555.69;;;1.62;100.00
1480;BME280;732;51.698;4.886;2023-01-31T03:12:18;102585.13;;;1.76;100.00
1480;BME280;732;51.698;4.886;2023-01-31T03:15:08;102542.03;;;1.65;100.00
1480;BME280;732;51.698;4.886;2023-01-31T03:17:53;102586.16;;;1.91;100.00
1480;BME280;732;51.698;4.886;2023-01-31T03:20:32;102468.97;;;1.18;100.00
1480;BME280;732;51.698;4.886;2023-01-31T03:23:07;102541.44;;;1.56;100.00
1480;BME280;732;51.698;4.886;2023-01-31T03:25:38;102586.75;;;1.87;100.00
1480;BME280;732;51.698;4.886;2023-01-31T03:28:14;102569.19;;;1.83;100.00
1480;BME280;732;51.698;4.886;2023-01-31T03:30:51;102521.19;;;1.76;100.00
1480;BME280;732;51.698;4.886;2023-01-31T03:33:27;102575.75;;;2.04;100.00
1480;BME280;732;51.698;4.886;2023-01-31T03:36:07;102443.34;;;1.23;100.00
1480;BME280;732;51.698;4.886;2023-01-31T03:38:48;102585.25;;;2.04;100.00
1480;BME280;732;51.698;4.886;2023-01-31T03:41:29;102455.19;;;1.19;100.00
1480;BME280;732;51.698;4.886;2023-01-31T03:44:07;102468.06;;;1.44;100.00
1480;BME280;732;51.698;4.886;2023-01-31T03:46:42;102393.00;;;0.93;100.00
1480;BME280;732;51.698;4.886;2023-01-31T03:49:14;102581.66;;;1.89;100.00
1480;BME280;732;51.698;4.886;2023-01-31T03:51:50;102442.25;;;1.19;100.00
1480;BME280;732;51.698;4.886;2023-01-31T03:54:24;102436.28;;;1.20;100.00
1480;BME280;732;51.698;4.886;2023-01-31T03:56:57;102555.19;;;1.81;100.00
1480;BME280;732;51.698;4.886;2023-01-31T03:59:34;102368.53;;;0.88;100.00
1480;BME280;732;51.698;4.886;2023-01-31T04:02:11;102502.75;;;1.46;100.00
1480;BME280;732;51.698;4.886;2023-01-31T04:04:50;102552.41;;;1.65;100.00
1480;BME280;732;51.698;4.886;2023-01-31T04:07:21;102538.22;;;1.60;100.00
1480;BME280;732;51.698;4.886;2023-01-31T04:09:52;102559.28;;;1.77;100.00
1480;BME280;732;51.698;4.886;2023-01-31T04:12:25;102464.06;;;1.10;100.00
1480;BME280;732;51.698;4.886;2023-01-31T04:14:53;102442.63;;;0.86;100.00
1480;BME280;732;51.698;4.886;2023-01-31T04:17:22;102428.94;;;0.75;100.00
1480;BME280;732;51.698;4.886;2023-01-31T04:19:53;102554.00;;;1.37;100.00
1480;BME280;732;51.698;4.886;2023-01-31T04:22:22;102532.16;;;1.20;100.00
1480;BME280;732;51.698;4.886;2023-01-31T04:24:53;102396.56;;;0.56;100.00
1480;BME280;732;51.698;4.886;2023-01-31T04:27:22;102542.41;;;1.45;100.00
1480;BME280;732;51.698;4.886;2023-01-31T04:29:55;102505.44;;;1.47;100.00
1480;BME280;732;51.698;4.886;2023-01-31T04:32:26;102401.59;;;1.05;100.00
1480;BME280;732;51.698;4.886;2023-01-31T04:34:55;102472.31;;;1.56;100.00
1480;BME280;732;51.698;4.886;2023-01-31T04:37:23;102548.34;;;1.95;100.00
1480;BME280;732;51.698;4.886;2023-01-31T04:39:52;102539.25;;;1.88;100.00
1480;BME280;732;51.698;4.886;2023-01-31T04:42:22;102405.69;;;1.15;100.00
1480;BME280;732;51.698;4.886;2023-01-31T04:44:51;102421.22;;;1.41;100.00
1480;BME280;732;51.698;4.886;2023-01-31T04:47:21;102443.72;;;1.55;100.00
1480;BME280;732;51.698;4.886;2023-01-31T04:49:49;102419.78;;;1.59;100.00
1480;BME280;732;51.698;4.886;2023-01-31T04:52:18;102494.63;;;1.94;100.00
1480;BME280;732;51.698;4.886;2023-01-31T04:54:46;102431.91;;;1.60;100.00
1480;BME280;732;51.698;4.886;2023-01-31T04:57:15;102510.38;;;2.10;100.00
1480;BME280;732;51.698;4.886;2023-01-31T04:59:43;102326.53;;;1.20;100.00
1480;BME280;732;51.698;4.886;2023-01-31T05:02:13;102392.84;;;1.57;100.00
1480;BME280;732;51.698;4.886;2023-01-31T05:04:43;102516.34;;;2.22;100.00
1480;BME280;732;51.698;4.886;2023-01-31T05:07:13;102370.16;;;1.40;100.00
1480;BME280;732;51.698;4.886;2023-01-31T05:09:44;102497.31;;;2.08;100.00
1480;BME280;732;51.698;4.886;2023-01-31T05:12:15;102511.84;;;2.47;100.00
1480;BME280;732;51.698;4.886;2023-01-31T05:14:44;102511.66;;;2.44;100.00
1480;BME280;732;51.698;4.886;2023-01-31T05:17:13;102506.66;;;2.19;100.00
1480;BME280;732;51.698;4.886;2023-01-31T05:19:42;102498.47;;;2.13;100.00
1480;BME280;732;51.698;4.886;2023-01-31T05:22:15;102440.84;;;2.04;100.00
1480;BME280;732;51.698;4.886;2023-01-31T05:24:49;102306.97;;;1.25;100.00
1480;BME280;732;51.698;4.886;2023-01-31T05:27:18;102344.91;;;1.37;100.00
1480;BME280;732;51.698;4.886;2023-01-31T05:29:48;102338.91;;;1.51;100.00
1480;BME280;732;51.698;4.886;2023-01-31T05:32:17;102489.13;;;2.30;100.00
1480;BME280;732;51.698;4.886;2023-01-31T05:34:49;102479.06;;;2.34;100.00
1480;BME280;732;51.698;4.886;2023-01-31T05:37:17;102411.59;;;1.94;100.00
1480;BME280;732;51.698;4.886;2023-01-31T05:39:46;102476.09;;;2.43;100.00
1480;BME280;732;51.698;4.886;2023-01-31T05:42:15;102357.97;;;1.79;100.00
1480;BME280;732;51.698;4.886;2023-01-31T05:44:43;102473.72;;;2.46;100.00
1480;BME280;732;51.698;4.886;2023-01-31T05:47:12;102410.28;;;2.28;100.00
1480;BME280;732;51.698;4.886;2023-01-31T05:49:40;102481.91;;;2.39;100.00
1480;BME280;732;51.698;4.886;2023-01-31T05:52:10;102477.72;;;2.41;100.00
1480;BME280;732;51.698;4.886;2023-01-31T05:54:39;102350.69;;;1.87;100.00
1480;BME280;732;51.698;4.886;2023-01-31T05:57:08;102307.47;;;1.60;100.00
1480;BME280;732;51.698;4.886;2023-01-31T05:59:36;102470.28;;;2.47;100.00
1480;BME280;732;51.698;4.886;2023-01-31T06:02:05;102351.38;;;1.85;100.00
1480;BME280;732;51.698;4.886;2023-01-31T06:04:35;102460.28;;;2.53;100.00
1480;BME280;732;51.698;4.886;2023-01-31T06:07:07;102466.72;;;2.59;100.00
1480;BME280;732;51.698;4.886;2023-01-31T06:09:36;102466.09;;;2.49;100.00
1480;BME280;732;51.698;4.886;2023-01-31T06:12:08;102414.13;;;2.20;100.00
1480;BME280;732;51.698;4.886;2023-01-31T06:14:39;102432.75;;;2.27;100.00
1480;BME280;732;51.698;4.886;2023-01-31T06:17:08;102453.72;;;2.45;100.00
1480;BME280;732;51.698;4.886;2023-01-31T06:19:36;102338.88;;;1.92;100.00
1480;BME280;732;51.698;4.886;2023-01-31T06:22:06;102440.88;;;2.61;100.00
1480;BME280;732;51.698;4.886;2023-01-31T06:24:39;102446.69;;;2.71;100.00
1480;BME280;732;51.698;4.886;2023-01-31T06:27:11;102336.69;;;2.13;100.00
1480;BME280;732;51.698;4.886;2023-01-31T06:29:40;102442.75;;;2.78;100.00
1480;BME280;732;51.698;4.886;2023-01-31T06:32:08;102446.06;;;2.75;100.00
1480;BME280;732;51.698;4.886;2023-01-31T06:34:37;102436.75;;;2.64;100.00
1480;BME280;732;51.698;4.886;2023-01-31T06:37:08;102440.41;;;2.68;100.00
1480;BME280;732;51.698;4.886;2023-01-31T06:39:38;102344.38;;;2.11;100.00
1480;BME280;732;51.698;4.886;2023-01-31T06:42:08;102441.56;;;2.58;100.00
1480;BME280;732;51.698;4.886;2023-01-31T06:44:37;102436.75;;;2.50;100.00
1480;BME280;732;51.698;4.886;2023-01-31T06:47:06;102433.53;;;2.68;100.00
1480;BME280;732;51.698;4.886;2023-01-31T06:49:36;102433.88;;;2.74;100.00
1480;BME280;732;51.698;4.886;2023-01-31T06:52:04;102402.34;;;2.54;100.00
1480;BME280;732;51.698;4.886;2023-01-31T06:54:33;102402.25;;;2.67;100.00
1480;BME280;732;51.698;4.886;2023-01-31T06:57:04;102398.66;;;2.65;100.00
1480;BME280;732;51.698;4.886;2023-01-31T06:59:33;102386.59;;;2.51;100.00
1480;BME280;732;51.698;4.886;2023-01-31T07:02:02;102425.28;;;2.61;100.00
1480;BME280;732;51.698;4.886;2023-01-31T07:04:33;102414.16;;;2.63;100.00
1480;BME280;732;51.698;4.886;2023-01-31T07:07:05;102399.66;;;2.67;100.00
1480;BME280;732;51.698;4.886;2023-01-31T07:09:33;102289.34;;;2.17;100.00
1480;BME280;732;51.698;4.886;2023-01-31T07:12:04;102416.94;;;2.96;100.00
1480;BME280;732;51.698;4.886;2023-01-31T07:14:33;102414.53;;;2.84;100.00
1480;BME280;732;51.698;4.886;2023-01-31T07:17:02;102417.94;;;2.83;100.00
1480;BME280;732;51.698;4.886;2023-01-31T07:19:32;102406.19;;;2.75;100.00
1480;BME280;732;51.698;4.886;2023-01-31T07:22:02;102322.22;;;2.31;100.00
1480;BME280;732;51.698;4.886;2023-01-31T07:24:30;102398.38;;;2.90;100.00
1480;BME280;732;51.698;4.886;2023-01-31T07:26:59;102213.19;;;2.02;100.00
1480;BME280;732;51.698;4.886;2023-01-31T07:29:30;102368.56;;;2.83;100.00
1480;BME280;732;51.698;4.886;2023-01-31T07:31:59;102223.13;;;1.94;100.00
1480;BME280;732;51.698;4.886;2023-01-31T07:34:28;102396.41;;;3.00;100.00
1480;BME280;732;51.698;4.886;2023-01-31T07:36:57;102369.47;;;2.84;100.00
1480;BME280;732;51.698;4.886;2023-01-31T07:39:27;102374.72;;;3.00;100.00
1480;BME280;732;51.698;4.886;2023-01-31T07:41:56;102343.06;;;2.76;100.00
1480;BME280;732;51.698;4.886;2023-01-31T07:44:25;102395.97;;;2.93;100.00
1480;BME280;732;51.698;4.886;2023-01-31T07:46:54;102391.41;;;2.89;100.00
1480;BME280;732;51.698;4.886;2023-01-31T07:49:23;102243.16;;;2.11;100.00
1480;BME280;732;51.698;4.886;2023-01-31T07:51:52;102372.84;;;2.97;100.00
1480;BME280;732;51.698;4.886;2023-01-31T07:54:20;102386.72;;;2.98;100.00
1480;BME280;732;51.698;4.886;2023-01-31T07:56:49;102348.06;;;2.73;100.00
1480;BME280;732;51.698;4.886;2023-01-31T07:59:17;102372.25;;;2.87;100.00
1480;BME280;732;51.698;4.886;2023-01-31T08:01:46;102393.63;;;3.12;100.00
1480;BME280;732;51.698;4.886;2023-01-31T08:04:34;102399.41;;;3.22;100.00
1480;BME280;732;51.698;4.886;2023-01-31T08:07:03;102391.78;;;3.25;100.00
1480;BME280;732;51.698;4.886;2023-01-31T08:09:33;102384.25;;;3.30;100.00
1480;BME280;732;51.698;4.886;2023-01-31T08:12:01;102393.16;;;3.49;100.00
1480;BME280;732;51.698;4.886;2023-01-31T08:14:30;102377.84;;;3.39;100.00
1480;BME280;732;51.698;4.886;2023-01-31T08:16:59;102318.31;;;3.13;100.00
1480;BME280;732;51.698;4.886;2023-01-31T08:19:28;102261.19;;;2.99;100.00
1480;BME280;732;51.698;4.886;2023-01-31T08:21:58;102314.44;;;3.21;100.00
1480;BME280;732;51.698;4.886;2023-01-31T08:24:27;102334.28;;;3.51;100.00
1480;BME280;732;51.698;4.886;2023-01-31T08:26:56;102310.09;;;3.52;100.00
1480;BME280;732;51.698;4.886;2023-01-31T08:29:25;102263.91;;;3.16;100.00
1480;BME280;732;51.698;4.886;2023-01-31T08:31:54;102308.53;;;3.40;100.00
1480;BME280;732;51.698;4.886;2023-01-31T08:34:23;102269.75;;;3.44;100.00
1480;BME280;732;51.698;4.886;2023-01-31T08:36:51;102336.22;;;3.70;100.00
1480;BME280;732;51.698;4.886;2023-01-31T08:39:21;102320.75;;;3.73;100.00
1480;BME280;732;51.698;4.886;2023-01-31T08:41:50;102315.84;;;3.63;100.00
1480;BME280;732;51.698;4.886;2023-01-31T08:44:18;102324.25;;;3.73;100.00
1480;BME280;732;51.698;4.886;2023-01-31T08:46:47;102324.47;;;3.78;100.00
1480;BME280;732;51.698;4.886;2023-01-31T08:49:16;102298.81;;;3.68;100.00
1480;BME280;732;51.698;4.886;2023-01-31T08:51:44;102329.03;;;3.82;100.00
1480;BME280;732;51.698;4.886;2023-01-31T08:54:13;102188.34;;;3.13;100.00
1480;BME280;732;51.698;4.886;2023-01-31T08:56:43;102321.78;;;3.77;100.00
1480;BME280;732;51.698;4.886;2023-01-31T08:59:12;102227.28;;;3.12;100.00
1480;BME280;732;51.698;4.886;2023-01-31T09:01:41;102313.59;;;3.53;100.00
1480;BME280;732;51.698;4.886;2023-01-31T09:04:12;102249.88;;;3.29;100.00
1480;BME280;732;51.698;4.886;2023-01-31T09:06:41;102301.06;;;3.62;100.00
1480;BME280;732;51.698;4.886;2023-01-31T09:09:09;102298.72;;;3.83;100.00
1480;BME280;732;51.698;4.886;2023-01-31T09:11:38;102304.63;;;3.80;100.00
1480;BME280;732;51.698;4.886;2023-01-31T09:14:08;102310.31;;;3.89;100.00
1480;BME280;732;51.698;4.886;2023-01-31T09:16:37;102326.50;;;4.00;100.00
1480;BME280;732;51.698;4.886;2023-01-31T09:19:09;102323.19;;;3.86;100.00
1480;BME280;732;51.698;4.886;2023-01-31T09:21:37;102325.13;;;3.90;100.00
1480;BME280;732;51.698;4.886;2023-01-31T09:24:08;102323.16;;;4.02;100.00
1480;BME280;732;51.698;4.886;2023-01-31T09:26:38;102311.28;;;4.07;100.00
1480;BME280;732;51.698;4.886;2023-01-31T09:29:08;102309.72;;;4.11;100.00
1480;BME280;732;51.698;4.886;2023-01-31T09:31:36;102300.69;;;4.20;100.00
1480;BME280;732;51.698;4.886;2023-01-31T09:34:04;102296.94;;;4.15;100.00
1480;BME280;732;51.698;4.886;2023-01-31T09:36:33;102279.97;;;4.06;100.00
1480;BME280;732;51.698;4.886;2023-01-31T09:39:02;102294.69;;;3.89;100.00
1480;BME280;732;51.698;4.886;2023-01-31T09:41:35;102338.69;;;4.17;100.00
1480;BME280;732;51.698;4.886;2023-01-31T09:44:10;102309.47;;;4.06;100.00
1480;BME280;732;51.698;4.886;2023-01-31T09:46:46;102279.00;;;3.88;100.00
1480;BME280;732;51.698;4.886;2023-01-31T09:49:21;102297.44;;;4.08;100.00
1480;BME280;732;51.698;4.886;2023-01-31T09:51:57;102327.38;;;4.16;100.00
1480;BME280;732;51.698;4.886;2023-01-31T09:54:31;102263.97;;;3.98;100.00
1480;BME280;732;51.698;4.886;2023-01-31T09:57:18;102272.09;;;4.22;100.00
1480;BME280;732;51.698;4.886;2023-01-31T09:59:58;102284.19;;;4.71;100.00
1480;BME280;732;51.698;4.886;2023-01-31T10:06:01;102225.91;;;4.34;100.00
1480;BME280;732;51.698;4.886;2023-01-31T10:08:43;102227.34;;;4.29;100.00
1480;BME280;732;51.698;4.886;2023-01-31T10:11:21;102259.81;;;4.35;100.00
1480;BME280;732;51.698;4.886;2023-01-31T10:13:57;102299.81;;;4.71;100.00
1480;BME280;732;51.698;4.886;2023-01-31T10:16:35;102254.16;;;4.44;100.00
1480;BME280;732;51.698;4.886;2023-01-31T10:19:08;102315.38;;;4.87;100.00
1480;BME280;732;51.698;4.886;2023-01-31T10:21:42;102289.91;;;4.46;100.00
1480;BME280;732;51.698;4.886;2023-01-31T10:24:17;102311.25;;;4.57;100.00
1480;BME280;732;51.698;4.886;2023-01-31T10:26:51;102282.91;;;4.63;100.00
1480;BME280;732;51.698;4.886;2023-01-31T10:29:29;102300.63;;;4.88;100.00
1480;BME280;732;51.698;4.886;2023-01-31T10:32:04;102296.94;;;5.02;100.00
1480;BME280;732;51.698;4.886;2023-01-31T10:34:40;102129.59;;;4.35;100.00
1480;BME280;732;51.698;4.886;2023-01-31T10:37:17;102283.88;;;5.19;100.00
1480;BME280;732;51.698;4.886;2023-01-31T10:39:55;102281.00;;;5.50;100.00
1480;BME280;732;51.698;4.886;2023-01-31T10:42:30;102278.50;;;5.53;100.00
1480;BME280;732;51.698;4.886;2023-01-31T10:45:05;102254.94;;;5.32;100.00
1480;BME280;732;51.698;4.886;2023-01-31T10:47:46;102289.00;;;5.74;100.00
1480;BME280;732;51.698;4.886;2023-01-31T10:50:21;102284.34;;;5.47;100.00
1480;BME280;732;51.698;4.886;2023-01-31T10:53:11;102294.44;;;5.40;100.00
1480;BME280;732;51.698;4.886;2023-01-31T10:55:57;102257.72;;;5.35;100.00
1480;BME280;732;51.698;4.886;2023-01-31T10:58:27;102266.00;;;5.46;100.00
1480;BME280;732;51.698;4.886;2023-01-31T11:00:57;102204.28;;;5.08;100.00
1480;BME280;732;51.698;4.886;2023-01-31T11:03:27;102252.97;;;5.46;100.00
1480;BME280;732;51.698;4.886;2023-01-31T11:05:57;102245.06;;;5.63;100.00
1480;BME280;732;51.698;4.886;2023-01-31T11:08:35;102224.88;;;5.79;100.00
1480;BME280;732;51.698;4.886;2023-01-31T11:11:07;102229.97;;;5.96;100.00
1480;BME280;732;51.698;4.886;2023-01-31T11:13:37;102215.53;;;5.64;100.00
1480;BME280;732;51.698;4.886;2023-01-31T11:16:08;102195.50;;;5.44;100.00
1480;BME280;732;51.698;4.886;2023-01-31T11:18:45;102189.72;;;5.32;100.00
1480;BME280;732;51.698;4.886;2023-01-31T11:21:21;102236.91;;;5.56;100.00
1480;BME280;732;51.698;4.886;2023-01-31T11:23:50;102215.81;;;5.32;100.00
1480;BME280;732;51.698;4.886;2023-01-31T11:26:29;102247.19;;;5.34;100.00
1480;BME280;732;51.698;4.886;2023-01-31T11:29:00;102238.25;;;5.29;100.00
1480;BME280;732;51.698;4.886;2023-01-31T11:31:40;102120.25;;;4.58;100.00
1480;BME280;732;51.698;4.886;2023-01-31T11:34:21;102213.06;;;5.29;100.00
1480;BME280;732;51.698;4.886;2023-01-31T11:36:51;102244.66;;;5.16;100.00
1480;BME280;732;51.698;4.886;2023-01-31T11:39:28;102230.34;;;5.08;100.00
1480;BME280;732;51.698;4.886;2023-01-31T11:42:05;102239.38;;;5.15;100.00
1480;BME280;732;51.698;4.886;2023-01-31T11:44:34;102238.66;;;5.19;100.00
1480;BME280;732;51.698;4.886;2023-01-31T11:47:11;102255.97;;;5.36;100.00
1480;BME280;732;51.698;4.886;2023-01-31T11:49:42;102265.34;;;5.13;100.00
1480;BME280;732;51.698;4.886;2023-01-31T11:52:14;102272.97;;;5.09;100.00
1480;BME280;732;51.698;4.886;2023-01-31T11:54:47;102218.47;;;4.96;100.00
1480;BME280;732;51.698;4.886;2023-01-31T11:57:22;102268.13;;;5.16;100.00
1480;BME280;732;51.698;4.886;2023-01-31T11:59:54;102189.03;;;4.61;100.00
1480;BME280;732;51.698;4.886;2023-01-31T12:02:31;102232.50;;;4.80;100.00
1480;BME280;732;51.698;4.886;2023-01-31T12:05:07;102238.22;;;5.10;100.00
1480;BME280;732;51.698;4.886;2023-01-31T12:07:44;102262.84;;;5.15;100.00
1480;BME280;732;51.698;4.886;2023-01-31T12:10:30;102266.13;;;5.11;100.00
1480;BME280;732;51.698;4.886;2023-01-31T12:13:00;102236.78;;;4.97;100.00
1480;BME280;732;51.698;4.886;2023-01-31T12:16:03;102263.34;;;5.08;100.00
1480;BME280;732;51.698;4.886;2023-01-31T12:18:50;102272.91;;;5.07;100.00
1480;BME280;732;51.698;4.886;2023-01-31T12:21:38;102215.16;;;4.63;100.00
1480;BME280;732;51.698;4.886;2023-01-31T12:24:19;102275.81;;;4.96;100.00
1480;BME280;732;51.698;4.886;2023-01-31T12:26:56;102262.25;;;5.03;100.00
1480;BME280;732;51.698;4.886;2023-01-31T12:29:59;102224.44;;;4.76;100.00
1480;BME280;732;51.698;4.886;2023-01-31T12:32:55;102268.97;;;4.80;100.00
1480;BME280;732;51.698;4.886;2023-01-31T12:35:48;102161.03;;;4.22;100.00
1480;BME280;732;51.698;4.886;2023-01-31T12:38:48;102240.38;;;4.82;100.00
1480;BME280;732;51.698;4.886;2023-01-31T12:41:30;102270.44;;;4.93;100.00
1480;BME280;732;51.698;4.886;2023-01-31T12:44:24;102216.25;;;4.68;100.00
1480;BME280;732;51.698;4.886;2023-01-31T12:50:27;102249.44;;;5.07;100.00
1480;BME280;732;51.698;4.886;2023-01-31T12:53:24;102186.84;;;4.71;100.00
1480;BME280;732;51.698;4.886;2023-01-31T12:56:10;102257.75;;;5.18;100.00
1480;BME280;732;51.698;4.886;2023-01-31T12:58:50;102239.50;;;5.18;100.00
1480;BME280;732;51.698;4.886;2023-01-31T13:01:47;102193.63;;;5.04;100.00
1480;BME280;732;51.698;4.886;2023-01-31T13:04:35;102236.50;;;5.28;100.00
1480;BME280;732;51.698;4.886;2023-01-31T13:07:13;102179.38;;;4.96;100.00
1480;BME280;732;51.698;4.886;2023-01-31T13:09:47;102239.00;;;5.45;100.00
1480;BME280;732;51.698;4.886;2023-01-31T13:12:30;102237.41;;;5.30;100.00
1480;BME280;732;51.698;4.886;2023-01-31T13:15:09;102238.66;;;5.19;100.00
1480;BME280;732;51.698;4.886;2023-01-31T13:17:47;102242.78;;;5.33;100.00
1480;BME280;732;51.698;4.886;2023-01-31T13:20:28;102231.63;;;5.35;100.00
1480;BME280;732;51.698;4.886;2023-01-31T13:23:02;102228.50;;;5.44;100.00
1480;BME280;732;51.698;4.886;2023-01-31T13:25:38;102160.41;;;5.19;100.00
1480;BME280;732;51.698;4.886;2023-01-31T13:28:15;102117.38;;;5.09;100.00
1480;BME280;732;51.698;4.886;2023-01-31T13:30:49;102219.00;;;5.84;100.00
1480;BME280;732;51.698;4.886;2023-01-31T13:33:31;102209.59;;;5.88;100.00
1480;BME280;732;51.698;4.886;2023-01-31T13:36:20;102214.84;;;5.69;100.00
1480;BME280;732;51.698;4.886;2023-01-31T13:38:51;102224.06;;;5.81;100.00
1480;BME280;732;51.698;4.886;2023-01-31T13:41:26;102208.38;;;5.60;100.00
1480;BME280;732;51.698;4.886;2023-01-31T13:43:57;102140.84;;;5.28;100.00
1480;BME280;732;51.698;4.886;2023-01-31T13:46:31;102114.00;;;5.31;100.00
1480;BME280;732;51.698;4.886;2023-01-31T13:49:04;102172.75;;;5.61;100.00
1480;BME280;732;51.698;4.886;2023-01-31T13:51:39;102189.50;;;5.87;100.00
1480;BME280;732;51.698;4.886;2023-01-31T13:54:15;102218.44;;;6.10;100.00
1480;BME280;732;51.698;4.886;2023-01-31T13:56:49;102122.97;;;5.37;100.00
1480;BME280;732;51.698;4.886;2023-01-31T13:59:24;102095.63;;;5.28;100.00
1480;BME280;732;51.698;4.886;2023-01-31T14:01:55;102223.19;;;6.01;100.00
1480;BME280;732;51.698;4.886;2023-01-31T14:04:32;102236.56;;;5.88;100.00
1480;BME280;732;51.698;4.886;2023-01-31T14:07:21;102201.63;;;5.65;100.00
1480;BME280;732;51.698;4.886;2023-01-31T14:10:35;102229.25;;;5.80;100.00
1480;BME280;732;51.698;4.886;2023-01-31T14:13:41;102243.06;;;5.98;100.00